createdAt,value
2023-02-19T00:00:14.340Z,78.00
2023-02-19T00:02:41.950Z,78.90
2023-02-19T00:05:12.808Z,80.70
2023-02-19T00:07:40.340Z,79.30
2023-02-19T00:10:08.415Z,81.40
2023-02-19T00:12:35.969Z,80.80
2023-02-19T00:15:05.096Z,79.70
2023-02-19T00:17:32.977Z,78.80
2023-02-19T00:20:01.439Z,77.10
2023-02-19T00:22:29.138Z,77.30
2023-02-19T00:24:57.610Z,79.30
2023-02-19T00:27:24.934Z,79.60
2023-02-19T00:29:54.253Z,80.00
2023-02-19T00:32:21.482Z,81.70
2023-02-19T00:34:50.819Z,81.70
2023-02-19T00:37:18.258Z,82.00
2023-02-19T00:39:45.987Z,81.00
2023-02-19T00:42:13.496Z,80.20
2023-02-19T00:44:41.726Z,77.60
2023-02-19T00:47:09.453Z,77.90
2023-02-19T00:49:39.447Z,77.10
2023-02-19T00:52:06.772Z,79.40
2023-02-19T00:54:34.688Z,79.70
2023-02-19T00:57:02.251Z,79.00
2023-02-19T00:59:31.458Z,77.90
2023-02-19T01:01:58.848Z,78.00
2023-02-19T01:04:26.263Z,76.80
2023-02-19T01:06:54.219Z,77.70
2023-02-19T01:09:21.589Z,78.60
2023-02-19T01:11:49.387Z,77.90
2023-02-19T01:14:17.980Z,79.20
2023-02-19T01:16:45.464Z,79.60
2023-02-19T01:19:15.791Z,79.00
2023-02-19T01:21:44.394Z,77.60
2023-02-19T01:24:11.654Z,79.50
2023-02-19T01:26:39.156Z,79.40
2023-02-19T01:29:07.297Z,80.30
2023-02-19T01:31:36.847Z,81.70
2023-02-19T01:34:06.581Z,81.80
2023-02-19T01:36:37.195Z,81.40
2023-02-19T01:39:07.362Z,80.40
2023-02-19T01:41:39.618Z,80.60
2023-02-19T01:44:17.980Z,78.90
2023-02-19T01:46:48.779Z,80.60
2023-02-19T01:49:28.679Z,80.60
2023-02-19T01:52:30.953Z,80.90
2023-02-19T01:55:01.565Z,80.90
2023-02-19T01:57:37.276Z,80.70
2023-02-19T02:00:11.858Z,80.60
2023-02-19T02:02:44.565Z,81.30
2023-02-19T02:05:38.810Z,80.10
2023-02-19T02:08:26.190Z,81.20
2023-02-19T02:10:56.309Z,81.90
2023-02-19T02:13:23.860Z,82.00
2023-02-19T02:16:21.669Z,83.70
2023-02-19T02:19:09.644Z,83.40
2023-02-19T02:22:16.230Z,83.20
2023-02-19T02:24:55.505Z,82.30
2023-02-19T02:27:36.612Z,82.10
2023-02-19T02:30:27.523Z,80.50
2023-02-19T02:33:12.088Z,81.90
2023-02-19T02:35:50.185Z,81.70
2023-02-19T02:38:23.142Z,81.60
2023-02-19T02:40:51.933Z,81.40
2023-02-19T02:43:20.493Z,80.80
2023-02-19T02:45:48.087Z,80.60
2023-02-19T02:48:42.737Z,80.70
2023-02-19T02:51:21.501Z,82.20
2023-02-19T02:54:35.527Z,82.10
2023-02-19T02:57:09.964Z,81.50
2023-02-19T02:59:46.205Z,80.50
2023-02-19T03:02:23.043Z,80.00
2023-02-19T03:05:29.518Z,79.60
2023-02-19T03:08:00.684Z,80.40
2023-02-19T03:10:52.068Z,81.20
2023-02-19T03:14:13.617Z,82.20
2023-02-19T03:17:11.584Z,81.50
2023-02-19T03:19:46.001Z,80.70
2023-02-19T03:22:27.153Z,80.10
2023-02-19T03:25:28.827Z,79.80
2023-02-19T03:27:58.713Z,78.90
2023-02-19T03:30:39.554Z,78.90
2023-02-19T03:33:19.266Z,78.70
2023-02-19T03:36:08.874Z,78.50
2023-02-19T03:39:02.100Z,78.70
2023-02-19T03:41:56.811Z,78.60
2023-02-19T03:44:47.142Z,78.30
2023-02-19T03:47:41.853Z,78.10
2023-02-19T03:50:13.627Z,78.60
2023-02-19T03:52:41.269Z,78.30
2023-02-19T03:55:23.666Z,78.60
2023-02-19T03:58:05.924Z,78.60
2023-02-19T04:00:44.751Z,78.60
2023-02-19T04:03:54.771Z,79.30
2023-02-19T04:06:27.571Z,80.10
2023-02-19T04:08:59.714Z,81.20
2023-02-19T04:11:29.339Z,81.20
2023-02-19T04:14:15.464Z,81.60
2023-02-19T04:16:50.918Z,82.20
2023-02-19T04:19:21.611Z,81.50
2023-02-19T04:21:50.995Z,81.50
2023-02-19T04:24:33.060Z,81.50
2023-02-19T04:27:00.678Z,80.80
2023-02-19T04:29:27.991Z,78.70
2023-02-19T04:31:56.315Z,80.30
2023-02-19T04:34:23.764Z,81.10
2023-02-19T04:36:51.108Z,80.20
2023-02-19T04:39:18.446Z,79.40
2023-02-19T04:41:45.867Z,79.30
2023-02-19T04:44:14.369Z,79.50
2023-02-19T04:46:43.159Z,79.80
2023-02-19T04:49:11.682Z,79.70
2023-02-19T04:51:39.898Z,79.50
2023-02-19T04:54:07.878Z,78.70
2023-02-19T04:56:35.239Z,78.80
2023-02-19T04:59:04.312Z,78.50
2023-02-19T05:01:31.641Z,78.50
2023-02-19T05:03:59.116Z,78.20
2023-02-19T05:06:27.626Z,78.10
2023-02-19T05:08:55.125Z,78.40
2023-02-19T05:11:24.105Z,79.30
2023-02-19T05:13:51.629Z,79.90
2023-02-19T05:16:18.951Z,81.30
2023-02-19T05:18:47.018Z,81.60
2023-02-19T05:21:15.369Z,81.20
2023-02-19T05:23:43.969Z,80.90
2023-02-19T05:26:19.898Z,80.00
2023-02-19T05:28:49.259Z,79.60
2023-02-19T05:31:16.984Z,79.00
2023-02-19T05:33:47.611Z,78.50
2023-02-19T05:36:15.172Z,77.90
2023-02-19T05:38:44.117Z,77.90
2023-02-19T05:41:17.709Z,78.60
2023-02-19T05:43:52.549Z,79.00
2023-02-19T05:46:24.242Z,79.00
2023-02-19T05:48:53.816Z,79.00
2023-02-19T05:51:25.336Z,79.20
2023-02-19T05:53:52.936Z,79.70
2023-02-19T05:56:26.437Z,79.10
2023-02-19T05:58:55.011Z,78.50
2023-02-19T06:01:25.986Z,78.30
2023-02-19T06:03:57.253Z,78.90
2023-02-19T06:06:26.224Z,79.50
2023-02-19T06:08:54.134Z,80.20
2023-02-19T06:11:23.984Z,80.30
2023-02-19T06:13:53.413Z,80.30
2023-02-19T06:16:22.586Z,80.50
2023-02-19T06:18:51.372Z,80.80
2023-02-19T06:21:20.334Z,80.60
2023-02-19T06:23:48.247Z,80.40
2023-02-19T06:26:15.629Z,79.90
2023-02-19T06:28:46.548Z,79.10
2023-02-19T06:31:14.738Z,78.20
2023-02-19T06:33:43.401Z,78.50
2023-02-19T06:36:14.299Z,77.30
2023-02-19T06:38:42.416Z,76.90
2023-02-19T06:41:11.439Z,77.30
2023-02-19T06:44:07.701Z,77.00
2023-02-19T06:46:42.372Z,77.00
2023-02-19T06:49:09.794Z,77.00
2023-02-19T06:51:37.456Z,76.60
2023-02-19T06:54:05.571Z,76.70
2023-02-19T06:56:39.579Z,78.30
2023-02-19T06:59:13.521Z,78.50
2023-02-19T07:01:41.423Z,79.20
2023-02-19T07:04:10.372Z,78.70
2023-02-19T07:06:38.191Z,78.50
2023-02-19T07:09:08.604Z,78.70
2023-02-19T07:11:38.364Z,78.60
2023-02-19T07:14:09.303Z,78.50
2023-02-19T07:16:39.571Z,78.20
2023-02-19T07:19:07.198Z,78.10
2023-02-19T07:21:37.934Z,77.40
2023-02-19T07:24:06.680Z,77.30
2023-02-19T07:26:33.982Z,77.50
2023-02-19T07:29:02.634Z,77.50
2023-02-19T07:31:30.317Z,77.50
2023-02-19T07:33:57.611Z,78.20
2023-02-19T07:36:26.091Z,78.40
2023-02-19T07:38:59.402Z,78.20
2023-02-19T07:41:27.915Z,78.70
2023-02-19T07:43:58.175Z,78.50
2023-02-19T07:46:26.300Z,78.10
2023-02-19T07:48:54.893Z,78.00
2023-02-19T07:51:22.966Z,77.70
2023-02-19T07:53:54.432Z,77.10
2023-02-19T07:56:23.668Z,76.20
2023-02-19T07:58:51.466Z,76.50
2023-02-19T08:01:40.687Z,76.20
2023-02-19T08:04:12.260Z,76.40
2023-02-19T08:06:42.611Z,75.90
2023-02-19T08:09:10.305Z,75.70
2023-02-19T08:11:57.676Z,75.10
2023-02-19T08:14:27.528Z,74.80
2023-02-19T08:16:55.387Z,75.00
2023-02-19T08:19:25.598Z,74.20
2023-02-19T08:21:53.758Z,73.20
2023-02-19T08:24:24.973Z,73.10
2023-02-19T08:26:53.813Z,73.70
2023-02-19T08:29:21.402Z,74.10
2023-02-19T08:31:49.030Z,73.20
2023-02-19T08:34:17.332Z,73.70
2023-02-19T08:36:44.693Z,73.00
2023-02-19T08:39:11.945Z,73.80
2023-02-19T08:41:39.344Z,73.00
2023-02-19T08:44:08.589Z,73.30
2023-02-19T08:46:35.837Z,72.30
2023-02-19T08:49:04.744Z,71.80
2023-02-19T08:51:32.586Z,71.80
2023-02-19T08:54:04.857Z,69.90
2023-02-19T08:56:33.172Z,70.10
2023-02-19T08:59:00.468Z,69.60
2023-02-19T09:01:27.906Z,68.70
2023-02-19T09:03:56.152Z,68.70
2023-02-19T09:06:31.893Z,68.10
2023-02-19T09:09:24.578Z,67.60
2023-02-19T09:11:54.953Z,67.70
2023-02-19T09:14:33.212Z,67.60
2023-02-19T09:17:01.644Z,67.00
2023-02-19T09:19:30.727Z,67.20
2023-02-19T09:21:58.263Z,66.70
2023-02-19T09:24:26.684Z,67.50
2023-02-19T09:26:55.128Z,67.60
2023-02-19T09:29:25.785Z,66.30
2023-02-19T09:31:56.361Z,65.80
2023-02-19T09:34:24.855Z,65.90
2023-02-19T09:36:57.384Z,66.20
2023-02-19T09:39:24.870Z,65.60
2023-02-19T09:42:08.900Z,65.90
2023-02-19T09:44:40.554Z,65.50
2023-02-19T09:47:20.759Z,65.40
2023-02-19T09:49:52.293Z,65.50
2023-02-19T09:52:46.856Z,65.00
2023-02-19T09:55:37.145Z,64.20
2023-02-19T09:58:16.078Z,64.60
2023-02-19T10:00:48.887Z,65.00
2023-02-19T10:03:30.890Z,64.60
2023-02-19T10:06:02.869Z,64.20
2023-02-19T10:08:34.390Z,63.70
2023-02-19T10:11:05.162Z,64.20
2023-02-19T10:13:35.775Z,64.20
2023-02-19T10:16:07.279Z,63.00
2023-02-19T10:18:41.901Z,62.90
2023-02-19T10:21:16.336Z,63.60
2023-02-19T10:23:56.918Z,61.60
2023-02-19T10:26:25.215Z,61.60
2023-02-19T10:28:55.551Z,61.60
2023-02-19T10:31:26.300Z,61.30
2023-02-19T10:34:03.423Z,60.90
2023-02-19T10:36:38.482Z,60.30
2023-02-19T10:39:21.872Z,60.90
2023-02-19T10:41:52.411Z,61.60
2023-02-19T10:44:28.226Z,61.00
2023-02-19T10:46:58.993Z,60.70
2023-02-19T10:49:30.348Z,60.80
2023-02-19T10:52:03.954Z,60.70
2023-02-19T10:54:35.671Z,60.40
2023-02-19T10:57:43.601Z,60.40
2023-02-19T11:00:18.742Z,61.30
2023-02-19T11:02:47.844Z,61.80
2023-02-19T11:05:20.252Z,58.40
2023-02-19T11:07:54.998Z,55.90
2023-02-19T11:10:40.395Z,55.20
2023-02-19T11:13:15.816Z,52.50
2023-02-19T11:15:51.458Z,51.80
2023-02-19T11:18:33.313Z,49.40
2023-02-19T11:21:08.675Z,52.00
2023-02-19T11:23:47.686Z,51.50
2023-02-19T11:26:22.180Z,53.20
2023-02-19T11:29:01.168Z,53.90
2023-02-19T11:31:33.423Z,55.40
2023-02-19T11:34:07.197Z,54.70
2023-02-19T11:36:36.437Z,53.00
2023-02-19T11:39:16.546Z,55.20
2023-02-19T11:42:06.456Z,53.50
2023-02-19T11:45:11.748Z,54.50
2023-02-19T11:48:09.020Z,52.70
2023-02-19T11:51:05.444Z,53.60
2023-02-19T11:53:37.369Z,54.00
2023-02-19T11:56:22.594Z,53.50
2023-02-19T11:59:02.352Z,54.70
2023-02-19T12:02:18.558Z,54.80
2023-02-19T12:05:19.291Z,55.10
2023-02-19T12:08:05.429Z,56.10
2023-02-19T12:11:08.478Z,56.60
2023-02-19T12:14:09.785Z,55.80
2023-02-19T12:17:09.851Z,56.40
2023-02-19T12:20:07.987Z,57.10
2023-02-19T12:22:44.939Z,57.20
2023-02-19T12:25:34.317Z,58.90
2023-02-19T12:28:25.458Z,57.10
2023-02-19T12:31:22.465Z,58.20
2023-02-19T12:34:06.651Z,57.80
2023-02-19T12:36:50.830Z,56.60
2023-02-19T12:39:42.761Z,58.30
2023-02-19T12:42:32.110Z,57.70
2023-02-19T12:45:06.802Z,57.80
2023-02-19T12:47:42.294Z,58.30
2023-02-19T12:50:27.844Z,59.60
2023-02-19T12:53:21.487Z,59.30
2023-02-19T12:55:48.935Z,58.30
2023-02-19T12:58:28.994Z,58.00
2023-02-19T13:01:00.164Z,57.00
2023-02-19T13:03:38.484Z,58.00
2023-02-19T13:06:47.702Z,59.00
2023-02-19T13:09:25.259Z,59.10
2023-02-19T13:12:00.556Z,57.30
2023-02-19T13:14:33.821Z,57.60
2023-02-19T13:17:09.809Z,58.50
2023-02-19T13:19:38.715Z,58.20
2023-02-19T13:22:45.533Z,57.80
2023-02-19T13:25:15.109Z,56.80
2023-02-19T13:28:10.948Z,59.20
2023-02-19T13:31:00.431Z,57.90
2023-02-19T13:33:36.856Z,57.20
2023-02-19T13:36:13.214Z,58.00
2023-02-19T13:38:44.131Z,57.00
2023-02-19T13:41:31.599Z,57.50
2023-02-19T13:44:02.891Z,56.70
2023-02-19T13:46:40.716Z,58.70
2023-02-19T13:49:23.611Z,58.70
2023-02-19T13:51:56.537Z,59.30
2023-02-19T13:54:42.066Z,59.80
2023-02-19T13:57:25.553Z,59.90
2023-02-19T13:59:54.438Z,60.10
2023-02-19T14:02:22.025Z,60.30
2023-02-19T14:04:57.142Z,61.20
2023-02-19T14:07:27.188Z,61.10
2023-02-19T14:09:55.548Z,61.60
2023-02-19T14:12:31.334Z,62.70
2023-02-19T14:15:28.524Z,63.60
2023-02-19T14:17:57.270Z,64.40
2023-02-19T14:20:40.870Z,64.70
2023-02-19T14:23:25.631Z,65.20
2023-02-19T14:25:58.447Z,65.60
2023-02-19T14:28:33.757Z,65.60
2023-02-19T14:31:22.738Z,65.70
2023-02-19T14:34:14.914Z,65.80
2023-02-19T14:40:55.808Z,65.90
2023-02-19T14:43:25.893Z,66.00
2023-02-19T14:46:05.082Z,66.10
2023-02-19T14:48:38.433Z,67.60
2023-02-19T14:51:30.988Z,67.60
2023-02-19T14:54:01.698Z,68.20
2023-02-19T14:56:34.959Z,67.20
2023-02-19T14:59:10.204Z,68.00
2023-02-19T15:01:38.285Z,68.40
2023-02-19T15:04:07.055Z,66.60
2023-02-19T15:06:38.135Z,65.20
2023-02-19T15:09:07.480Z,63.70
2023-02-19T15:11:36.143Z,63.00
2023-02-19T15:14:06.715Z,63.90
2023-02-19T15:16:35.810Z,65.80
2023-02-19T15:19:08.180Z,65.90
2023-02-19T15:21:39.159Z,66.60
2023-02-19T15:24:07.490Z,66.50
2023-02-19T15:26:41.898Z,66.30
2023-02-19T15:29:14.808Z,67.50
2023-02-19T15:31:47.478Z,68.20
2023-02-19T15:34:35.094Z,68.00
2023-02-19T15:37:08.667Z,68.00
2023-02-19T15:39:37.748Z,68.20
2023-02-19T15:42:07.714Z,68.40
2023-02-19T15:44:53.948Z,68.30
2023-02-19T15:47:36.013Z,68.50
2023-02-19T15:50:13.363Z,68.20
2023-02-19T15:52:46.130Z,69.20
2023-02-19T15:55:19.987Z,69.00
2023-02-19T15:57:53.387Z,69.30
2023-02-19T16:00:34.581Z,68.90
2023-02-19T16:03:06.039Z,68.60
2023-02-19T16:05:40.923Z,68.50
2023-02-19T16:08:21.464Z,69.00
2023-02-19T16:10:57.845Z,69.30
2023-02-19T16:13:28.404Z,69.40
2023-02-19T16:16:36.347Z,69.30
2023-02-19T16:19:04.031Z,69.80
2023-02-19T16:21:32.481Z,69.10
2023-02-19T16:24:20.495Z,69.10
2023-02-19T16:26:49.313Z,68.80
2023-02-19T16:29:22.764Z,69.30
2023-02-19T16:32:02.090Z,68.70
2023-02-19T16:34:44.137Z,68.20
2023-02-19T16:37:30.502Z,70.10
2023-02-19T16:40:19.189Z,70.70
2023-02-19T16:42:49.561Z,70.80
2023-02-19T16:45:22.744Z,71.30
2023-02-19T16:47:52.223Z,71.60
2023-02-19T16:50:22.905Z,71.80
2023-02-19T16:52:57.485Z,71.60
2023-02-19T16:55:27.787Z,72.00
2023-02-19T16:57:57.143Z,71.90
2023-02-19T17:00:31.209Z,72.40
2023-02-19T17:03:10.660Z,70.90
2023-02-19T17:05:39.567Z,72.50
2023-02-19T17:08:41.241Z,72.40
2023-02-19T17:11:17.588Z,73.10
2023-02-19T17:13:47.099Z,74.30
2023-02-19T17:16:23.002Z,74.70
2023-02-19T17:18:52.060Z,74.00
2023-02-19T17:21:25.656Z,74.40
2023-02-19T17:23:54.314Z,74.00
2023-02-19T17:26:32.203Z,72.90
2023-02-19T17:29:01.938Z,73.20
2023-02-19T17:31:29.659Z,72.90
2023-02-19T17:33:57.176Z,72.70
2023-02-19T17:36:31.948Z,73.00
2023-02-19T17:39:01.955Z,73.20
2023-02-19T17:41:30.132Z,73.00
2023-02-19T17:43:57.813Z,73.20
2023-02-19T17:46:27.475Z,73.10
2023-02-19T17:49:01.377Z,72.80
2023-02-19T17:51:30.621Z,73.80
2023-02-19T17:54:01.567Z,75.00
2023-02-19T17:56:29.459Z,74.70
2023-02-19T17:58:57.583Z,75.40
2023-02-19T18:01:25.823Z,75.50
2023-02-19T18:03:53.833Z,75.30
2023-02-19T18:06:21.886Z,75.30
2023-02-19T18:08:51.588Z,75.20
2023-02-19T18:11:22.376Z,75.40
2023-02-19T18:13:52.730Z,75.40
2023-02-19T18:16:20.187Z,75.40
2023-02-19T18:18:47.524Z,75.30
2023-02-19T18:21:17.397Z,75.30
2023-02-19T18:23:48.832Z,75.80
2023-02-19T18:26:26.516Z,75.70
2023-02-19T18:28:54.464Z,75.30
2023-02-19T18:31:21.817Z,75.00
2023-02-19T18:33:50.238Z,74.90
2023-02-19T18:36:18.501Z,74.90
2023-02-19T18:38:46.959Z,75.00
2023-02-19T18:41:22.319Z,75.00
2023-02-19T18:43:49.896Z,75.00
2023-02-19T18:46:21.756Z,73.70
2023-02-19T18:48:50.317Z,73.80
2023-02-19T18:51:17.909Z,73.50
2023-02-19T18:53:45.301Z,74.20
2023-02-19T18:56:13.096Z,75.00
2023-02-19T18:58:42.064Z,74.60
2023-02-19T19:01:10.025Z,75.40
2023-02-19T19:03:38.979Z,75.60
2023-02-19T19:06:06.349Z,75.00
2023-02-19T19:08:34.185Z,75.60
2023-02-19T19:11:02.828Z,76.00
2023-02-19T19:13:30.774Z,76.10
2023-02-19T19:15:58.081Z,76.40
2023-02-19T19:18:26.620Z,75.30
2023-02-19T19:20:56.826Z,73.70
2023-02-19T19:23:26.695Z,73.70
2023-02-19T19:25:56.287Z,73.60
2023-02-19T19:28:24.125Z,74.40
2023-02-19T19:30:51.699Z,74.80
2023-02-19T19:33:20.464Z,74.80
2023-02-19T19:35:47.804Z,75.50
2023-02-19T19:38:15.576Z,75.40
2023-02-19T19:40:45.755Z,77.20
2023-02-19T19:43:15.248Z,76.40
2023-02-19T19:45:44.452Z,74.90
2023-02-19T19:48:12.832Z,75.00
2023-02-19T19:50:40.175Z,76.70
2023-02-19T19:53:07.796Z,76.20
2023-02-19T19:55:36.038Z,76.30
2023-02-19T19:58:03.420Z,77.20
2023-02-19T20:00:35.375Z,76.30
2023-02-19T20:03:03.355Z,78.20
2023-02-19T20:05:32.227Z,78.90
2023-02-19T20:07:59.899Z,77.70
2023-02-19T20:10:27.240Z,78.80
2023-02-19T20:12:57.233Z,78.90
2023-02-19T20:15:28.388Z,78.40
2023-02-19T20:17:55.722Z,77.90
2023-02-19T20:20:23.351Z,77.50
2023-02-19T20:22:53.211Z,77.70
2023-02-19T20:25:23.080Z,77.80
2023-02-19T20:27:52.984Z,77.10
2023-02-19T20:30:27.343Z,78.90
2023-02-19T20:32:54.930Z,76.20
2023-02-19T20:35:22.338Z,76.00
2023-02-19T20:37:50.951Z,75.80
2023-02-19T20:40:18.699Z,74.20
2023-02-19T20:42:46.114Z,75.90
2023-02-19T20:45:20.085Z,74.60
2023-02-19T20:47:54.847Z,73.40
2023-02-19T20:50:25.814Z,74.40
2023-02-19T20:52:56.024Z,73.70
2023-02-19T20:55:24.367Z,74.50
2023-02-19T20:57:53.068Z,77.80
2023-02-19T21:00:26.082Z,75.20
2023-02-19T21:02:53.638Z,76.50
2023-02-19T21:05:22.091Z,79.80
2023-02-19T21:07:49.704Z,77.20
2023-02-19T21:10:17.313Z,77.70
2023-02-19T21:12:45.846Z,76.70
2023-02-19T21:15:14.969Z,76.50
2023-02-19T21:17:45.609Z,76.80
2023-02-19T21:20:14.264Z,77.10
2023-02-19T21:22:41.854Z,77.40
2023-02-19T21:25:09.163Z,75.90
2023-02-19T21:27:38.464Z,78.10
2023-02-19T21:30:07.642Z,78.70
2023-02-19T21:33:37.510Z,77.50
2023-02-19T21:36:06.581Z,79.80
2023-02-19T21:38:34.333Z,80.50
2023-02-19T21:41:03.539Z,82.70
2023-02-19T21:43:31.400Z,83.20
2023-02-19T21:46:01.451Z,84.10
2023-02-19T21:48:29.030Z,84.40
2023-02-19T21:50:57.271Z,83.70
2023-02-19T21:53:24.613Z,82.30
2023-02-19T21:55:58.779Z,79.70
2023-02-19T21:58:27.176Z,80.70
2023-02-19T22:00:56.477Z,81.50
2023-02-19T22:03:26.552Z,81.20
2023-02-19T22:05:55.624Z,79.80
2023-02-19T22:08:22.921Z,77.90
2023-02-19T22:10:51.376Z,79.80
2023-02-19T22:13:18.690Z,80.60
2023-02-19T22:15:47.802Z,80.70
2023-02-19T22:18:15.249Z,80.50
2023-02-19T22:20:42.678Z,80.00
2023-02-19T22:23:10.259Z,78.40
2023-02-19T22:25:38.181Z,79.20
2023-02-19T22:28:07.845Z,80.50
2023-02-19T22:30:38.893Z,81.00
2023-02-19T22:33:07.171Z,81.40
2023-02-19T22:35:34.839Z,81.50
2023-02-19T22:38:03.661Z,82.30
2023-02-19T22:40:31.334Z,81.50
2023-02-19T22:42:58.680Z,82.00
2023-02-19T22:45:29.454Z,81.90
2023-02-19T22:47:57.934Z,81.20
2023-02-19T22:50:26.669Z,79.90
2023-02-19T22:52:55.264Z,83.40
2023-02-19T22:55:22.508Z,84.80
2023-02-19T22:57:50.827Z,84.50
2023-02-19T23:00:24.707Z,83.80
2023-02-19T23:02:54.514Z,80.90
2023-02-19T23:05:24.650Z,81.10
2023-02-19T23:07:53.296Z,81.90
2023-02-19T23:10:20.655Z,83.90
2023-02-19T23:12:49.108Z,82.00
2023-02-19T23:15:17.575Z,83.90
2023-02-19T23:17:47.061Z,84.20
2023-02-19T23:20:14.760Z,84.10
2023-02-19T23:22:43.763Z,83.70
2023-02-19T23:25:11.586Z,87.20
2023-02-19T23:27:38.840Z,84.30
2023-02-19T23:30:10.028Z,85.00
2023-02-19T23:32:37.540Z,85.30
2023-02-19T23:35:05.797Z,84.20
2023-02-19T23:37:33.585Z,83.80
2023-02-19T23:40:01.801Z,82.70
2023-02-19T23:42:29.355Z,82.10
2023-02-19T23:44:57.548Z,80.50
2023-02-19T23:47:26.705Z,81.40
2023-02-19T23:49:54.661Z,81.90
2023-02-19T23:52:22.058Z,83.70
2023-02-19T23:54:50.716Z,86.30
2023-02-19T23:57:18.224Z,87.30
2023-02-19T23:59:47.375Z,86.50
